createdAt,value
2017-05-15T16:17:35.077Z,12.21
2017-05-15T16:18:35.788Z,8.01
2017-05-15T16:19:36.502Z,5.46
2017-05-15T16:20:37.210Z,4.47
2017-05-15T16:21:37.923Z,3.69
2017-05-15T16:22:38.935Z,2.49
2017-05-15T16:23:39.652Z,3.77
2017-05-15T16:24:40.366Z,4.66
2017-05-15T16:25:41.089Z,3.87
2017-05-15T16:26:41.804Z,5.54
2017-05-15T16:27:42.720Z,6.31
2017-05-15T16:28:43.443Z,6.22
2017-05-15T16:29:44.163Z,5.72
2017-05-15T16:30:44.880Z,5.83
2017-05-15T16:31:45.605Z,5.14
2017-05-15T16:32:46.677Z,5.73
2017-05-15T16:33:47.400Z,6.31
2017-05-15T16:34:48.118Z,9.11
2017-05-15T16:35:48.839Z,11.73
2017-05-15T16:36:49.557Z,12.71
2017-05-15T16:37:50.536Z,12.43
2017-05-15T16:38:51.263Z,12.15
2017-05-15T16:39:51.993Z,11.47
2017-05-15T16:40:52.719Z,11.08
2017-05-15T16:41:53.456Z,11.85
2017-05-15T16:42:54.481Z,11.76
2017-05-15T16:43:55.201Z,12.42
2017-05-15T16:44:55.938Z,13.56
2017-05-15T16:45:56.663Z,14.73
2017-05-15T16:46:57.391Z,14.15
2017-05-15T16:47:58.363Z,15.00
2017-05-15T16:48:59.095Z,15.88
2017-05-15T16:49:59.823Z,16.46
2017-05-15T16:51:00.546Z,17.13
2017-05-15T16:52:01.262Z,18.85
2017-05-15T16:53:02.231Z,18.75
2017-05-15T16:54:02.963Z,19.14
2017-05-15T16:55:03.681Z,19.53
2017-05-15T16:56:04.402Z,21.04
2017-05-15T16:57:05.132Z,22.96
2017-05-15T16:58:06.115Z,23.44
2017-05-15T16:59:06.834Z,23.26
2017-05-15T17:00:07.551Z,23.33
2017-05-15T17:01:08.285Z,24.77
2017-05-15T17:02:09.012Z,26.21
2017-05-15T17:03:09.933Z,25.16
2017-05-15T17:04:10.653Z,24.58
2017-05-15T17:05:11.380Z,25.37
2017-05-15T17:06:12.096Z,23.55
2017-05-15T17:07:12.817Z,23.64
2017-05-15T17:08:13.783Z,24.50
2017-05-15T17:09:14.503Z,24.03
2017-05-15T17:10:15.219Z,24.02
2017-05-15T17:11:15.939Z,24.04
2017-05-15T17:12:16.664Z,24.62
2017-05-15T17:13:17.630Z,22.61
2017-05-15T17:14:18.353Z,22.69
2017-05-15T17:15:19.075Z,23.48
2017-05-15T17:16:19.797Z,23.27
2017-05-15T17:17:20.520Z,23.95
2017-05-15T17:18:21.487Z,23.96
2017-05-15T17:19:22.207Z,23.18
2017-05-15T17:20:22.928Z,24.12
2017-05-15T17:21:23.643Z,25.47
2017-05-15T17:22:24.354Z,25.47
2017-05-15T17:23:25.269Z,25.76
2017-05-15T17:24:25.986Z,25.85
2017-05-15T17:25:26.699Z,27.73
2017-05-15T17:26:27.406Z,29.27
2017-05-15T17:27:28.123Z,29.66
2017-05-15T17:28:29.086Z,29.17
2017-05-15T17:29:29.801Z,29.46
2017-05-15T17:30:30.513Z,30.72
2017-05-15T17:31:31.243Z,29.86
2017-05-15T17:32:31.955Z,29.85
2017-05-15T17:33:32.918Z,30.52
2017-05-15T17:34:33.633Z,30.90
2017-05-15T17:35:34.352Z,31.75
2017-05-15T17:36:35.067Z,31.67
2017-05-15T17:37:35.788Z,31.85
2017-05-15T17:38:36.769Z,31.75
2017-05-15T17:39:37.482Z,32.21
2017-05-15T17:40:38.202Z,33.45
2017-05-15T17:41:38.925Z,33.55
2017-05-15T17:42:39.643Z,34.21
2017-05-15T17:43:40.605Z,34.70
2017-05-15T17:44:41.323Z,34.40
2017-05-15T17:45:42.035Z,34.80
2017-05-15T17:46:42.760Z,34.21
2017-05-15T17:47:43.474Z,33.25
2017-05-15T17:48:44.456Z,33.82
2017-05-15T17:49:45.172Z,34.30
2017-05-15T17:50:45.899Z,34.22
2017-05-15T17:51:46.606Z,34.03
2017-05-15T17:52:47.322Z,33.84
2017-05-15T17:53:48.285Z,34.69
2017-05-15T17:54:48.995Z,35.08
2017-05-15T17:55:49.709Z,36.13
2017-05-15T17:56:50.421Z,36.81
2017-05-15T17:57:51.132Z,36.02
2017-05-15T17:58:52.105Z,36.04
2017-05-15T17:59:52.823Z,36.71
2017-05-15T18:00:53.531Z,37.18
2017-05-15T18:01:54.251Z,36.89
2017-05-15T18:02:54.970Z,37.56
2017-05-15T18:03:55.981Z,37.46
2017-05-15T18:04:56.696Z,37.27
2017-05-15T18:05:57.415Z,38.04
2017-05-15T18:06:58.122Z,37.95
2017-05-15T18:07:58.839Z,39.39
2017-05-15T18:08:59.752Z,40.36
2017-05-15T18:10:00.467Z,41.61
2017-05-15T18:11:01.182Z,43.24
2017-05-15T18:12:01.920Z,43.34
2017-05-15T18:13:02.628Z,43.82
2017-05-15T18:14:03.593Z,44.96
2017-05-15T18:15:04.325Z,44.76
2017-05-15T18:16:05.034Z,44.96
2017-05-15T18:17:05.751Z,45.83
2017-05-15T18:18:06.458Z,45.83
2017-05-15T18:19:07.419Z,45.92
2017-05-15T18:20:08.112Z,45.90
2017-05-15T18:21:08.833Z,45.80
2017-05-15T18:22:09.551Z,46.19
2017-05-15T18:23:10.253Z,46.77
2017-05-15T18:24:11.226Z,47.05
2017-05-15T18:25:11.942Z,47.05
2017-05-15T18:26:12.659Z,47.34
2017-05-15T18:27:13.367Z,47.99
2017-05-15T18:28:14.077Z,48.57
2017-05-15T18:29:15.040Z,49.33
2017-05-15T18:30:15.749Z,49.63
2017-05-15T18:31:16.457Z,50.01
2017-05-15T18:32:17.168Z,50.08
2017-05-15T18:33:17.877Z,51.04
2017-05-15T18:34:18.786Z,50.95
2017-05-15T18:35:19.497Z,51.23
2017-05-15T18:36:20.211Z,52.20
2017-05-15T18:37:20.934Z,52.29
2017-05-15T18:38:21.676Z,52.17
2017-05-15T18:39:22.638Z,52.84
2017-05-15T18:40:23.347Z,52.75
2017-05-15T18:41:24.061Z,53.42
2017-05-15T18:42:24.765Z,53.70
2017-05-15T18:43:25.474Z,53.58
2017-05-15T18:44:26.487Z,53.87
2017-05-15T18:45:27.208Z,54.06
2017-05-15T18:46:27.919Z,54.74
2017-05-15T18:47:28.639Z,54.16
2017-05-15T18:48:29.353Z,54.35
2017-05-15T18:49:30.265Z,54.74
2017-05-15T18:50:30.977Z,55.02
2017-05-15T18:51:31.683Z,55.10
2017-05-15T18:52:32.392Z,55.29
2017-05-15T18:53:33.113Z,55.47
2017-05-15T18:54:34.071Z,55.77
2017-05-15T18:55:34.779Z,55.47
2017-05-15T18:56:35.491Z,56.15
2017-05-15T18:57:36.200Z,56.53
2017-05-15T18:58:36.910Z,56.53
2017-05-15T18:59:37.869Z,56.31
2017-05-15T19:00:38.584Z,56.51
2017-05-15T19:01:39.296Z,56.98
2017-05-15T19:02:40.009Z,56.73
2017-05-15T19:03:40.718Z,56.89
2017-05-15T19:04:41.680Z,56.60
2017-05-15T19:05:42.392Z,56.98
2017-05-15T19:06:43.098Z,56.70
2017-05-15T19:07:43.807Z,57.56
2017-05-15T19:08:44.523Z,57.56
2017-05-15T19:09:45.432Z,57.65
2017-05-15T19:10:46.132Z,57.08
2017-05-15T19:11:46.838Z,57.56
2017-05-15T19:12:47.550Z,57.72
2017-05-15T19:13:48.255Z,57.63
2017-05-15T19:14:49.217Z,57.43
2017-05-15T19:15:49.930Z,57.43
2017-05-15T19:16:50.643Z,58.01
2017-05-15T19:17:51.355Z,58.30
2017-05-15T19:18:52.077Z,57.92
2017-05-15T19:19:53.033Z,57.92
2017-05-15T19:20:53.737Z,57.82
2017-05-15T19:21:54.443Z,57.82
2017-05-15T19:22:55.156Z,58.39
2017-05-15T19:23:55.897Z,58.59
2017-05-15T19:24:56.864Z,58.69
2017-05-15T19:25:57.568Z,59.33
2017-05-15T19:26:58.282Z,59.33
2017-05-15T19:27:58.989Z,59.61
2017-05-15T19:28:59.698Z,59.33
2017-05-15T19:30:00.659Z,59.80
2017-05-15T19:31:01.361Z,60.09
2017-05-15T19:32:02.071Z,60.38
2017-05-15T19:33:02.780Z,60.19
2017-05-15T19:34:03.487Z,60.96
2017-05-15T19:35:04.441Z,60.47
2017-05-15T19:36:05.147Z,60.28
2017-05-15T19:37:05.850Z,61.31
2017-05-15T19:38:06.556Z,61.05
2017-05-15T19:39:07.262Z,61.53
2017-05-15T19:40:08.232Z,61.31
2017-05-15T19:41:08.946Z,61.02
2017-05-15T19:42:09.648Z,61.02
2017-05-15T19:43:10.353Z,60.83
2017-05-15T19:44:11.061Z,60.54
2017-05-15T19:45:12.016Z,61.21
2017-05-15T19:46:12.718Z,61.31
2017-05-15T19:47:13.423Z,61.40
2017-05-15T19:48:14.130Z,62.07
2017-05-15T19:49:14.833Z,61.79
2017-05-15T19:50:15.795Z,62.07
2017-05-15T19:51:16.504Z,61.88
2017-05-15T19:52:17.215Z,62.17
2017-05-15T19:53:17.920Z,62.43
2017-05-15T19:54:18.621Z,62.84
2017-05-15T19:55:19.581Z,63.57
2017-05-15T19:56:20.285Z,64.92
2017-05-15T19:57:20.988Z,64.63
2017-05-15T19:58:21.691Z,65.11
2017-05-15T19:59:22.407Z,65.17
2017-05-15T20:00:23.314Z,65.26
2017-05-15T20:01:24.017Z,65.36
2017-05-15T20:02:24.720Z,65.08
2017-05-15T20:03:25.425Z,65.36
2017-05-15T20:04:26.127Z,65.94
2017-05-15T20:05:27.080Z,65.94
2017-05-15T20:06:27.788Z,65.84
2017-05-15T20:07:28.507Z,66.61
2017-05-15T20:08:29.222Z,66.32
2017-05-15T20:09:29.935Z,66.61
2017-05-15T20:10:30.888Z,67.08
2017-05-15T20:11:31.593Z,66.96
2017-05-15T20:12:32.299Z,67.63
2017-05-15T20:13:33.011Z,67.43
2017-05-15T20:14:33.721Z,67.63
2017-05-15T20:15:34.674Z,68.10
2017-05-15T20:16:35.379Z,67.82
2017-05-15T20:17:36.087Z,67.82
2017-05-15T20:18:36.796Z,68.20
2017-05-15T20:19:37.506Z,68.68
2017-05-15T20:20:38.410Z,68.01
2017-05-15T20:21:39.113Z,68.01
2017-05-15T20:22:39.823Z,68.49
2017-05-15T20:23:40.537Z,67.91
2017-05-15T20:24:41.242Z,68.29
2017-05-15T20:25:42.197Z,68.29
2017-05-15T20:26:42.908Z,68.68
2017-05-15T20:27:43.610Z,68.39
2017-05-15T20:28:44.311Z,68.10
2017-05-15T20:29:45.013Z,68.20
2017-05-15T20:30:45.913Z,68.39
2017-05-15T20:31:46.620Z,69.06
2017-05-15T20:32:47.325Z,69.15
2017-05-15T20:33:48.031Z,69.06
2017-05-15T20:34:48.742Z,69.73
2017-05-15T20:35:49.696Z,69.50
2017-05-15T20:36:50.408Z,69.31
2017-05-15T20:37:51.117Z,69.31
2017-05-15T20:38:51.820Z,69.31
2017-05-15T20:39:52.523Z,69.73
2017-05-15T20:40:53.428Z,69.60
2017-05-15T20:41:54.138Z,69.25
2017-05-15T20:42:54.838Z,69.54
2017-05-15T20:43:55.546Z,69.60
2017-05-15T20:44:56.245Z,69.44
2017-05-15T20:45:57.205Z,69.54
2017-05-15T20:46:57.914Z,69.21
2017-05-15T20:47:58.617Z,69.41
2017-05-15T20:48:59.324Z,69.70
2017-05-15T20:50:00.031Z,69.15
2017-05-15T20:51:00.989Z,69.21
2017-05-15T20:52:01.694Z,69.79
2017-05-15T20:53:02.429Z,69.60
2017-05-15T20:54:03.142Z,69.64
2017-05-15T20:55:03.845Z,69.60
2017-05-15T20:56:04.797Z,69.82
2017-05-15T20:57:05.498Z,69.64
2017-05-15T20:58:06.204Z,69.73
2017-05-15T20:59:06.921Z,69.73
2017-05-15T21:00:07.624Z,70.11
2017-05-15T21:01:08.526Z,69.92
2017-05-15T21:02:09.228Z,69.64
2017-05-15T21:03:09.933Z,70.01
2017-05-15T21:04:10.638Z,70.40
2017-05-15T21:05:11.339Z,69.89
2017-05-15T21:06:12.242Z,70.01
2017-05-15T21:07:12.951Z,69.98
2017-05-15T21:08:13.652Z,70.46
2017-05-15T21:09:14.358Z,69.98
2017-05-15T21:10:15.096Z,69.98
2017-05-15T21:11:16.058Z,70.07
2017-05-15T21:12:16.761Z,69.60
2017-05-15T21:13:17.464Z,70.36
2017-05-15T21:14:18.167Z,70.46
2017-05-15T21:15:18.868Z,70.46
2017-05-15T21:16:19.822Z,70.56
2017-05-15T21:17:20.523Z,70.94
2017-05-15T21:18:21.224Z,70.94
2017-05-15T21:19:21.926Z,70.94
2017-05-15T21:20:22.627Z,71.32
2017-05-15T21:21:23.578Z,71.51
2017-05-15T21:22:24.279Z,71.61
2017-05-15T21:23:24.991Z,71.51
2017-05-15T21:24:25.707Z,71.51
2017-05-15T21:25:26.405Z,71.61
2017-05-15T21:26:27.313Z,72.08
2017-05-15T21:27:28.019Z,72.05
2017-05-15T21:28:28.721Z,72.53
2017-05-15T21:29:29.423Z,72.75
2017-05-15T21:30:30.126Z,73.19
2017-05-15T21:31:31.029Z,72.72
2017-05-15T21:32:31.732Z,73.29
2017-05-15T21:33:32.436Z,73.00
2017-05-15T21:34:33.139Z,73.29
2017-05-15T21:35:33.842Z,73.48
2017-05-15T21:36:34.740Z,73.96
2017-05-15T21:37:35.455Z,73.58
2017-05-15T21:38:36.163Z,73.58
2017-05-15T21:39:36.871Z,73.77
2017-05-15T21:40:37.575Z,73.86
2017-05-15T21:41:38.485Z,73.77
2017-05-15T21:42:39.193Z,73.67
2017-05-15T21:43:39.892Z,73.58
2017-05-15T21:44:40.602Z,73.29
2017-05-15T21:45:41.305Z,73.10
2017-05-15T21:46:42.209Z,73.39
2017-05-15T21:47:42.919Z,73.10
2017-05-15T21:48:43.623Z,73.00
2017-05-15T21:49:44.329Z,72.62
2017-05-15T21:50:45.032Z,73.19
2017-05-15T21:51:45.934Z,72.62
2017-05-15T21:52:46.635Z,72.81
2017-05-15T21:53:47.336Z,73.00
2017-05-15T21:54:48.038Z,73.00
2017-05-15T21:55:48.745Z,73.35
2017-05-15T21:56:49.697Z,73.19
2017-05-15T21:57:50.404Z,73.63
2017-05-15T21:58:51.109Z,74.11
2017-05-15T21:59:51.820Z,74.21
2017-05-15T22:00:52.522Z,74.59
2017-05-15T22:01:53.424Z,74.88
2017-05-15T22:02:54.130Z,74.98
2017-05-15T22:03:54.836Z,75.54
2017-05-15T22:04:55.537Z,75.45
2017-05-15T22:05:56.238Z,75.74
2017-05-15T22:06:57.140Z,75.64
2017-05-15T22:07:57.841Z,75.26
2017-05-15T22:08:58.538Z,76.03
2017-05-15T22:09:59.237Z,76.31
2017-05-15T22:10:59.939Z,76.21
2017-05-15T22:12:00.889Z,75.93
2017-05-15T22:13:01.588Z,76.21
2017-05-15T22:14:02.290Z,76.18
2017-05-15T22:15:02.995Z,76.56
2017-05-15T22:16:03.698Z,76.46
2017-05-15T22:17:04.599Z,76.18
2017-05-15T22:18:05.301Z,77.13
2017-05-15T22:19:06.004Z,76.65
2017-05-15T22:20:06.709Z,76.37
2017-05-15T22:21:07.410Z,76.84
2017-05-15T22:22:08.319Z,77.32
2017-05-15T22:23:09.020Z,77.03
2017-05-15T22:24:09.734Z,77.03
2017-05-15T22:25:10.433Z,76.84
2017-05-15T22:26:11.138Z,76.94
2017-05-15T22:27:12.100Z,77.23
2017-05-15T22:28:12.801Z,77.23
2017-05-15T22:29:13.499Z,77.32
2017-05-15T22:30:14.203Z,77.70
2017-05-15T22:31:14.905Z,77.80
2017-05-15T22:32:15.806Z,78.09
2017-05-15T22:33:16.509Z,77.99
2017-05-15T22:34:17.209Z,78.56
2017-05-15T22:35:17.912Z,78.56
2017-05-15T22:36:18.615Z,78.37
2017-05-15T22:37:19.585Z,78.81
2017-05-15T22:38:20.287Z,79.19
2017-05-15T22:39:20.987Z,79.10
2017-05-15T22:40:21.693Z,79.23
2017-05-15T22:41:22.394Z,79.10
2017-05-15T22:42:23.296Z,79.19
2017-05-15T22:43:24.001Z,79.38
2017-05-15T22:44:24.707Z,79.67
2017-05-15T22:45:25.412Z,80.15
2017-05-15T22:46:26.112Z,79.77
2017-05-15T22:47:27.065Z,79.57
2017-05-15T22:48:27.765Z,79.77
2017-05-15T22:49:28.469Z,79.77
2017-05-15T22:50:29.170Z,79.48
2017-05-15T22:51:29.870Z,79.96
2017-05-15T22:52:30.819Z,80.43
2017-05-15T22:53:31.520Z,79.96
2017-05-15T22:54:32.221Z,80.43
2017-05-15T22:55:32.924Z,80.58
2017-05-15T22:56:33.627Z,80.30
2017-05-15T22:57:34.536Z,80.68
2017-05-15T22:58:35.249Z,81.06
2017-05-15T22:59:35.957Z,80.87
2017-05-15T23:00:36.688Z,81.25
2017-05-15T23:01:37.394Z,81.44
2017-05-15T23:02:38.347Z,81.44
2017-05-15T23:03:39.046Z,81.63
2017-05-15T23:04:39.753Z,81.73
2017-05-15T23:05:40.454Z,82.11
2017-05-15T23:06:41.151Z,82.20
2017-05-15T23:07:42.051Z,82.68
2017-05-15T23:08:42.754Z,82.30
2017-05-15T23:09:43.458Z,82.40
2017-05-15T23:10:44.162Z,82.11
2017-05-15T23:11:44.860Z,82.40
2017-05-15T23:12:45.767Z,82.49
2017-05-15T23:13:46.464Z,82.40
2017-05-15T23:14:47.166Z,82.40
2017-05-15T23:15:47.865Z,82.40
2017-05-15T23:16:48.568Z,82.49
2017-05-15T23:17:49.472Z,82.30
2017-05-15T23:18:50.184Z,82.30
2017-05-15T23:19:50.895Z,82.20
2017-05-15T23:20:51.595Z,82.20
2017-05-15T23:21:52.291Z,82.11
2017-05-15T23:22:53.250Z,82.20
2017-05-15T23:23:53.952Z,82.20
2017-05-15T23:24:54.653Z,82.49
2017-05-15T23:25:55.355Z,82.30
2017-05-15T23:26:56.055Z,82.49
2017-05-15T23:27:57.008Z,82.30
2017-05-15T23:28:57.705Z,82.30
2017-05-15T23:29:58.404Z,82.07
2017-05-15T23:30:59.110Z,82.54
2017-05-15T23:31:59.810Z,82.45
2017-05-15T23:33:00.709Z,82.07
2017-05-15T23:34:01.409Z,82.83
2017-05-15T23:35:02.115Z,83.02
2017-05-15T23:36:02.814Z,83.31
2017-05-15T23:37:03.514Z,82.64
2017-05-15T23:38:04.467Z,83.02
2017-05-15T23:39:05.169Z,83.02
2017-05-15T23:40:05.870Z,82.92
2017-05-15T23:41:06.570Z,82.83
2017-05-15T23:42:07.275Z,83.21
2017-05-15T23:43:08.225Z,83.50
2017-05-15T23:44:08.927Z,83.50
2017-05-15T23:45:09.628Z,83.50
2017-05-15T23:46:10.333Z,83.50
2017-05-15T23:47:11.034Z,83.74
2017-05-15T23:48:11.985Z,83.93
2017-05-15T23:49:12.681Z,83.84
2017-05-15T23:50:13.382Z,83.74
2017-05-15T23:51:14.091Z,84.31
2017-05-15T23:52:14.792Z,84.12
2017-05-15T23:53:15.747Z,84.22
2017-05-15T23:54:16.444Z,84.88
2017-05-15T23:55:17.147Z,84.98
2017-05-15T23:56:17.849Z,85.17
2017-05-15T23:57:18.550Z,84.69
2017-05-15T23:58:19.505Z,84.79
2017-05-15T23:59:20.206Z,84.55
